Time;durP1;ratioP1;P1;durP2;ratioP2;P2;SDS_P1;SDS_P2;PMS_P1;PMS_P2;Temp;Humidity;BMP_temperature;BMP_pressure;BME280_temperature;BME280_humidity;BME280_pressure;Samples;Min_cycle;Max_cycle;Signal;HPM_P1;HPM_P2
2022/01/24 00:01:55;;;;;;;0.50;0.10;;;7.10;1.00;;;;;;5044040;28;20476;-79
2022/01/24 00:04:23;;;;;;;0.60;0.10;;;7.20;1.00;;;;;;5046671;28;20444;-77
2022/01/24 00:06:53;;;;;;;0.50;0.10;;;7.10;1.00;;;;;;5058907;28;20454;-77
2022/01/24 00:09:21;;;;;;;0.57;0.10;;;7.20;1.00;;;;;;5056330;28;20451;-80
2022/01/24 00:12:01;;;;;;;0.50;0.10;;;7.20;1.00;;;;;;5064280;28;20455;-77
2022/01/24 00:17:32;;;;;;;0.53;0.10;;;7.20;1.00;;;;;;5049036;28;20449;-77
2022/01/24 00:28:19;;;;;;;0.50;0.10;;;7.30;1.00;;;;;;5054852;28;20534;-80
2022/01/24 00:30:47;;;;;;;0.60;0.10;;;7.30;1.00;;;;;;5048503;28;20452;-78
2022/01/24 00:33:18;;;;;;;0.50;0.10;;;7.30;1.00;;;;;;5056255;28;20461;-77
2022/01/24 00:35:46;;;;;;;0.50;0.10;;;7.30;1.00;;;;;;5046718;28;20581;-80
2022/01/24 00:38:14;;;;;;;0.50;0.10;;;7.30;1.00;;;;;;5054753;28;20470;-80
2022/01/24 00:40:46;;;;;;;0.50;0.10;;;;;;;;;;5073230;28;20502;-79
2022/01/24 00:43:18;;;;;;;0.53;0.10;;;7.30;1.00;;;;;;5061571;28;20493;-82
2022/01/24 00:45:57;;;;;;;0.50;0.10;;;7.30;1.00;;;;;;5060320;28;20476;-79
2022/01/24 00:48:42;;;;;;;0.60;0.10;;;7.30;1.00;;;;;;5049608;28;20484;-79
2022/01/24 00:54:42;;;;;;;0.50;0.10;;;7.30;1.00;;;;;;5045147;28;20437;-80
2022/01/24 00:56:50;;;;;;;0.50;0.10;;;7.30;1.00;;;;;;5051683;28;20888;-78
2022/01/24 00:59:18;;;;;;;0.50;0.10;;;7.30;1.00;;;;;;5062279;28;20452;-77
2022/01/24 01:01:46;;;;;;;0.50;0.10;;;7.30;1.00;;;;;;5065334;28;20453;-79
2022/01/24 01:04:16;;;;;;;0.50;0.10;;;7.30;1.00;;;;;;5062010;28;21058;-79
2022/01/24 01:06:45;;;;;;;0.60;0.10;;;7.30;1.00;;;;;;5067224;28;20451;-80
2022/01/24 01:20:23;;;;;;;0.50;0.10;;;7.30;1.00;;;;;;5042477;28;20450;-79
2022/01/24 01:22:50;;;;;;;0.50;0.10;;;7.30;1.00;;;;;;5049381;28;20461;-81
2022/01/24 01:25:18;;;;;;;0.50;0.10;;;7.30;1.00;;;;;;5071271;28;20483;-81
2022/01/24 01:27:49;;;;;;;0.50;0.10;;;7.30;1.00;;;;;;5063781;28;20451;-81
2022/01/24 01:30:20;;;;;;;0.60;0.10;;;7.20;1.00;;;;;;5045801;28;20468;-81
2022/01/24 01:32:58;;;;;;;0.50;0.10;;;7.20;1.00;;;;;;5054185;28;20481;-79
2022/01/24 01:35:43;;;;;;;0.60;0.10;;;7.20;1.00;;;;;;5048106;28;20501;-82
2022/01/24 01:55:15;;;;;;;0.50;0.10;;;7.10;1.00;;;;;;5008492;28;20471;-79
2022/01/24 01:57:42;;;;;;;0.53;0.10;;;7.10;1.00;;;;;;4999311;28;20446;-79
2022/01/24 02:00:13;;;;;;;0.50;0.10;;;7.10;1.00;;;;;;5017511;28;20458;-82
2022/01/24 02:02:41;;;;;;;0.50;0.10;;;7.20;1.00;;;;;;5041182;28;20433;-81
2022/01/24 02:05:10;;;;;;;0.50;0.10;;;7.20;1.00;;;;;;5039999;28;20470;-80
2022/01/24 02:07:48;;;;;;;0.50;0.10;;;7.20;1.00;;;;;;5039224;28;20556;-81
2022/01/24 02:10:17;;;;;;;0.50;0.10;;;7.20;1.00;;;;;;5032662;28;20516;-78
2022/01/24 02:12:46;;;;;;;0.60;0.10;;;7.20;1.00;;;;;;5060472;28;20476;-80
2022/01/24 02:15:22;;;;;;;0.50;0.10;;;7.20;1.00;;;;;;5064716;28;20530;-80
2022/01/24 02:18:00;;;;;;;0.50;0.10;;;7.10;1.00;;;;;;5069909;28;20820;-79
2022/01/24 02:20:42;;;;;;;0.50;0.10;;;8.00;1.00;;;;;;5074965;28;20447;-77
2022/01/24 02:23:36;;;;;;;0.60;0.10;;;7.20;1.00;;;;;;5075389;28;20557;-79
2022/01/24 02:26:10;;;;;;;0.50;0.10;;;7.20;1.00;;;;;;5056115;28;20473;-79
2022/01/24 02:28:50;;;;;;;0.50;0.10;;;7.20;1.00;;;;;;5052678;28;20437;-77
2022/01/24 02:31:38;;;;;;;0.50;0.10;;;7.30;1.00;;;;;;5053801;28;20446;-78
2022/01/24 02:34:20;;;;;;;0.50;0.10;;;7.10;1.00;;;;;;5053574;28;20542;-76
2022/01/24 02:36:48;;;;;;;0.50;0.10;;;7.10;1.00;;;;;;5052334;28;20454;-77
2022/01/24 02:53:16;;;;;;;0.50;0.10;;;6.90;1.00;;;;;;5060075;28;20448;-79
2022/01/24 02:55:45;;;;;;;0.53;0.10;;;6.90;1.00;;;;;;5067274;28;20555;-77
2022/01/24 02:58:13;;;;;;;0.53;0.10;;;6.90;1.00;;;;;;5064845;28;20475;-81
2022/01/24 03:00:41;;;;;;;0.50;0.10;;;7.00;1.00;;;;;;5070349;28;20521;-77
2022/01/24 03:03:09;;;;;;;0.50;0.10;;;7.00;1.00;;;;;;5070644;28;20445;-77
2022/01/24 03:05:38;;;;;;;0.50;0.10;;;7.00;1.00;;;;;;5065542;28;20564;-81
2022/01/24 03:08:07;;;;;;;0.50;0.10;;;7.00;1.00;;;;;;5060779;28;20556;-81
2022/01/24 03:10:38;;;;;;;0.60;0.10;;;7.00;1.00;;;;;;5066746;28;20458;-77
2022/01/24 03:13:19;;;;;;;0.50;0.10;;;7.00;1.00;;;;;;5044083;28;20547;-78
2022/01/24 03:15:50;;;;;;;0.50;0.10;;;7.00;1.00;;;;;;5040220;28;20836;-80
2022/01/24 03:18:18;;;;;;;0.50;0.10;;;7.00;1.00;;;;;;5041089;28;20450;-81
2022/01/24 03:20:47;;;;;;;0.50;0.10;;;7.00;1.00;;;;;;5040508;28;20489;-79
2022/01/24 03:23:18;;;;;;;0.50;0.10;;;8.10;1.00;;;;;;5041422;28;20530;-78
2022/01/24 03:25:46;;;;;;;0.50;0.10;;;7.00;1.00;;;;;;5051442;28;20476;-81
2022/01/24 03:28:16;;;;;;;0.50;0.10;;;;;;;;;;5059433;28;20461;-81
2022/01/24 03:30:45;;;;;;;0.50;0.10;;;7.00;1.00;;;;;;5058628;28;20532;-82
2022/01/24 03:33:14;;;;;;;0.60;0.10;;;7.00;1.00;;;;;;5060790;28;20548;-78
2022/01/24 03:35:43;;;;;;;0.50;0.10;;;7.10;1.00;;;;;;5062007;28;20504;-80
2022/01/24 03:38:12;;;;;;;0.50;0.10;;;7.10;1.00;;;;;;5058694;28;20554;-80
2022/01/24 03:40:41;;;;;;;0.50;0.10;;;7.10;1.00;;;;;;5057630;28;20479;-81
2022/01/24 03:43:09;;;;;;;0.50;0.10;;;7.10;1.00;;;;;;5060777;28;20799;-77
2022/01/24 03:46:08;;;;;;;0.50;0.10;;;7.10;1.00;;;;;;5061588;28;20477;-81
2022/01/24 03:48:40;;;;;;;0.50;0.10;;;7.00;1.00;;;;;;5065896;28;20448;-79
2022/01/24 03:51:09;;;;;;;0.50;0.10;;;6.90;1.00;;;;;;5057471;28;20441;-81
2022/01/24 03:53:37;;;;;;;0.50;0.10;;;6.90;1.00;;;;;;5048473;28;20474;-76
2022/01/24 03:56:06;;;;;;;0.50;0.10;;;6.90;1.00;;;;;;5054727;28;20632;-79
2022/01/24 03:58:35;;;;;;;0.50;0.10;;;6.90;1.00;;;;;;5052662;28;20438;-76
2022/01/24 04:01:06;;;;;;;0.50;0.10;;;7.00;1.00;;;;;;5051748;28;20474;-79
2022/01/24 04:03:35;;;;;;;0.50;0.10;;;6.90;1.00;;;;;;5048099;28;20962;-79
2022/01/24 04:06:04;;;;;;;0.50;0.10;;;6.90;1.00;;;;;;5062874;28;20552;-79
2022/01/24 04:08:32;;;;;;;0.50;0.10;;;6.80;1.00;;;;;;5049478;28;20446;-79
2022/01/24 04:11:01;;;;;;;0.50;0.10;;;6.80;1.00;;;;;;5048511;28;20473;-81
2022/01/24 04:13:33;;;;;;;0.50;0.10;;;6.80;1.00;;;;;;5050724;28;20540;-78
2022/01/24 04:18:54;;;;;;;0.50;0.10;;;6.90;1.00;;;;;;5043731;28;20426;-80
2022/01/24 04:21:26;;;;;;;0.50;0.10;;;6.90;1.00;;;;;;5054880;28;20444;-79
2022/01/24 04:23:59;;;;;;;0.50;0.10;;;6.90;1.00;;;;;;5076610;28;20535;-76
2022/01/24 04:26:28;;;;;;;0.50;0.10;;;6.90;1.00;;;;;;5076035;28;20452;-80
2022/01/24 04:28:56;;;;;;;0.50;0.10;;;6.90;1.00;;;;;;5077459;28;20461;-76
2022/01/24 04:31:25;;;;;;;0.50;0.10;;;6.90;1.00;;;;;;5076186;28;20444;-76
2022/01/24 04:33:55;;;;;;;0.50;0.10;;;6.90;1.00;;;;;;5069034;28;20460;-81
2022/01/24 04:36:23;;;;;;;0.50;0.10;;;6.90;1.00;;;;;;5071914;28;20462;-80
2022/01/24 04:38:52;;;;;;;0.50;0.10;;;6.80;1.00;;;;;;5071845;28;20503;-79
2022/01/24 04:41:24;;;;;;;0.50;0.10;;;6.80;1.00;;;;;;5064395;28;20506;-79
2022/01/24 04:43:58;;;;;;;0.50;0.10;;;6.80;1.00;;;;;;5064461;28;20427;-80
2022/01/24 04:46:52;;;;;;;0.50;0.10;;;6.80;1.00;;;;;;5060048;28;20482;-79
2022/01/24 04:52:16;;;;;;;0.50;0.10;;;6.80;1.00;;;;;;5070179;28;20533;-79
2022/01/24 04:54:44;;;;;;;0.53;0.10;;;6.70;1.00;;;;;;5069181;28;20465;-79
2022/01/24 04:57:16;;;;;;;0.50;0.10;;;6.70;1.00;;;;;;5061748;28;20453;-79
2022/01/24 04:59:47;;;;;;;0.60;0.10;;;6.70;1.00;;;;;;5058729;28;20948;-79
2022/01/24 05:02:16;;;;;;;0.50;0.10;;;6.70;1.00;;;;;;5048090;28;20524;-78
2022/01/24 05:04:46;;;;;;;0.50;0.10;;;6.70;1.00;;;;;;5038164;28;20485;-78
2022/01/24 05:07:15;;;;;;;0.50;0.10;;;6.80;1.00;;;;;;5048784;28;20449;-79
2022/01/24 05:09:47;;;;;;;0.50;0.10;;;6.80;1.00;;;;;;5047157;28;20511;-79
2022/01/24 05:12:23;;;;;;;0.50;0.10;;;6.70;1.00;;;;;;5032948;28;20439;-79
2022/01/24 05:23:28;;;;;;;0.50;0.10;;;6.80;1.00;;;;;;5038105;28;20442;-78
2022/01/24 05:25:57;;;;;;;0.50;0.10;;;6.80;1.00;;;;;;5035968;28;20992;-79
2022/01/24 05:28:25;;;;;;;0.50;0.10;;;6.80;1.00;;;;;;5041634;28;20545;-79
2022/01/24 05:30:54;;;;;;;0.50;0.10;;;6.80;1.00;;;;;;5042634;28;20457;-79
2022/01/24 05:33:22;;;;;;;0.50;0.10;;;6.70;1.00;;;;;;5045263;28;20548;-78
2022/01/24 05:35:52;;;;;;;0.93;0.80;;;6.70;1.00;;;;;;5049089;28;20498;-80
2022/01/24 05:38:22;;;;;;;0.50;0.10;;;6.70;1.00;;;;;;5048686;28;20453;-78
2022/01/24 05:40:50;;;;;;;0.50;0.10;;;6.70;1.00;;;;;;5050370;28;20525;-78
2022/01/24 05:43:18;;;;;;;0.50;0.10;;;6.80;1.00;;;;;;5049550;28;20444;-79
2022/01/24 05:45:46;;;;;;;0.60;0.10;;;6.80;1.00;;;;;;5044958;28;20488;-79
2022/01/24 05:48:14;;;;;;;0.50;0.10;;;6.80;1.00;;;;;;5041183;28;20445;-80
2022/01/24 05:50:42;;;;;;;0.50;0.10;;;6.80;1.00;;;;;;5040745;28;20463;-78
2022/01/24 05:53:11;;;;;;;0.60;0.10;;;6.70;1.00;;;;;;5041257;28;20468;-78
2022/01/24 05:55:39;;;;;;;0.50;0.10;;;6.70;1.00;;;;;;5051582;28;20446;-79
2022/01/24 05:58:07;;;;;;;0.50;0.10;;;6.80;1.00;;;;;;5064685;28;20457;-78
2022/01/24 06:00:35;;;;;;;0.50;0.10;;;6.80;1.00;;;;;;5065887;28;20459;-78
2022/01/24 06:03:03;;;;;;;0.50;0.10;;;6.70;1.00;;;;;;5065177;28;20857;-80
2022/01/24 06:05:31;;;;;;;0.50;0.10;;;6.80;1.00;;;;;;5058062;28;20582;-79
2022/01/24 06:07:59;;;;;;;0.50;0.10;;;6.80;1.00;;;;;;5070129;28;20528;-79
2022/01/24 06:10:28;;;;;;;0.50;0.10;;;6.80;1.00;;;;;;5067892;28;20483;-79
2022/01/24 06:12:56;;;;;;;0.50;0.10;;;6.80;1.00;;;;;;5050623;28;20469;-79
2022/01/24 06:15:24;;;;;;;0.50;0.10;;;6.80;1.00;;;;;;5044811;28;20487;-80
2022/01/24 06:17:52;;;;;;;0.50;0.10;;;6.70;1.00;;;;;;5049739;28;20484;-79
2022/01/24 06:20:20;;;;;;;0.50;0.10;;;6.70;1.00;;;;;;5044664;28;20520;-78
2022/01/24 06:22:48;;;;;;;0.50;0.10;;;6.70;1.00;;;;;;5038599;28;20453;-79
2022/01/24 06:25:21;;;;;;;0.50;0.10;;;6.70;1.00;;;;;;5036796;28;20484;-79
2022/01/24 06:27:50;;;;;;;0.50;0.10;;;6.70;1.00;;;;;;5037942;28;20539;-78
2022/01/24 06:30:19;;;;;;;0.50;0.10;;;6.60;1.00;;;;;;5035559;28;20459;-78
2022/01/24 06:32:47;;;;;;;0.50;0.10;;;6.60;1.00;;;;;;5047123;28;21037;-76
2022/01/24 06:35:16;;;;;;;0.50;0.10;;;6.50;1.00;;;;;;5058072;28;20552;-77
2022/01/24 06:37:43;;;;;;;0.50;0.10;;;6.50;1.00;;;;;;5026440;28;20480;-75
2022/01/24 06:40:13;;;;;;;0.50;0.10;;;6.50;1.00;;;;;;5023769;28;20461;-77
2022/01/24 06:42:41;;;;;;;0.50;0.10;;;6.50;1.00;;;;;;5031138;28;20455;-77
2022/01/24 06:45:11;;;;;;;0.50;0.10;;;6.60;1.00;;;;;;5035547;28;21054;-77
2022/01/24 06:47:40;;;;;;;0.50;0.10;;;6.60;1.00;;;;;;5062650;28;20451;-76
2022/01/24 06:50:09;;;;;;;0.50;0.10;;;6.60;1.00;;;;;;5063739;28;20945;-76
2022/01/24 06:52:37;;;;;;;0.50;0.10;;;6.70;1.00;;;;;;5051718;28;20441;-77
2022/01/24 06:55:06;;;;;;;0.50;0.10;;;6.70;1.00;;;;;;5033885;28;20458;-76
2022/01/24 06:57:34;;;;;;;0.60;0.10;;;6.70;1.00;;;;;;5031628;28;20445;-76
2022/01/24 07:00:03;;;;;;;0.50;0.10;;;6.70;1.00;;;;;;5032755;28;20932;-75
2022/01/24 07:02:33;;;;;;;0.50;0.10;;;6.70;1.00;;;;;;5028059;28;20532;-75
2022/01/24 07:05:01;;;;;;;0.50;0.10;;;6.70;1.00;;;;;;5033077;28;20603;-77
2022/01/24 07:07:30;;;;;;;0.50;0.10;;;6.70;1.00;;;;;;5052857;28;20515;-77
2022/01/24 07:09:58;;;;;;;0.50;0.10;;;6.70;1.00;;;;;;5058943;28;20543;-79
2022/01/24 07:12:55;;;;;;;0.50;0.10;;;6.60;1.00;;;;;;5057549;28;20459;-78
2022/01/24 07:15:31;;;;;;;0.50;0.10;;;6.60;1.00;;;;;;5039551;28;20470;-77
2022/01/24 07:18:57;;;;;;;0.50;0.10;;;;;;;;;;5044262;28;20453;-78
2022/01/24 07:21:07;;;;;;;0.50;0.10;;;6.60;1.00;;;;;;5015773;28;20452;-76
2022/01/24 07:23:35;;;;;;;0.50;0.10;;;6.60;1.00;;;;;;5019569;28;20514;-77
2022/01/24 07:26:03;;;;;;;0.50;0.23;;;6.50;1.00;;;;;;5039833;28;20476;-77
2022/01/24 07:28:33;;;;;;;0.50;0.10;;;;;;;;;;5043978;28;20538;-77
2022/01/24 07:31:01;;;;;;;0.50;0.10;;;6.60;1.00;;;;;;5037672;28;20450;-77
2022/01/24 07:33:33;;;;;;;0.50;0.10;;;6.60;1.00;;;;;;5037922;28;20450;-77
2022/01/24 07:36:01;;;;;;;0.50;0.10;;;6.60;1.00;;;;;;5044271;28;20477;-76
2022/01/24 07:38:28;;;;;;;0.50;0.10;;;6.70;1.00;;;;;;5042114;28;20449;-77
2022/01/24 07:40:59;;;;;;;0.57;0.10;;;6.70;1.00;;;;;;5038720;28;20509;-78
2022/01/24 07:43:27;;;;;;;0.50;0.10;;;6.70;1.00;;;;;;5038873;28;20453;-77
2022/01/24 07:45:55;;;;;;;0.50;0.10;;;6.70;1.00;;;;;;5035190;28;20488;-77
2022/01/24 07:48:23;;;;;;;0.50;0.10;;;6.70;1.00;;;;;;5036076;28;20461;-76
2022/01/24 07:50:55;;;;;;;0.50;0.10;;;6.70;1.00;;;;;;5036428;28;20460;-75
2022/01/24 07:53:24;;;;;;;0.50;0.10;;;6.70;1.00;;;;;;5032197;28;20430;-76
2022/01/24 07:56:12;;;;;;;0.50;0.10;;;6.80;1.00;;;;;;5021955;28;20441;-76
2022/01/24 07:58:43;;;;;;;0.50;0.10;;;6.80;1.00;;;;;;5021188;28;20446;-78
2022/01/24 08:01:11;;;;;;;0.50;0.10;;;6.80;1.00;;;;;;5023244;28;20453;-75
2022/01/24 08:03:42;;;;;;;0.50;0.10;;;;;;;;;;5017816;28;20955;-76
2022/01/24 08:06:12;;;;;;;0.50;0.10;;;6.80;1.00;;;;;;5046087;28;20510;-76
2022/01/24 08:08:39;;;;;;;0.50;0.10;;;6.80;1.00;;;;;;5060093;28;20467;-75
2022/01/24 08:11:08;;;;;;;0.50;0.10;;;6.80;1.00;;;;;;5055271;28;20846;-77
2022/01/24 08:13:37;;;;;;;0.50;0.10;;;6.80;1.00;;;;;;5055895;28;20937;-77
2022/01/24 08:16:05;;;;;;;0.50;0.10;;;6.90;1.00;;;;;;5056432;28;20461;-76
2022/01/24 08:18:34;;;;;;;0.50;0.10;;;;;;;;;;5051036;28;20441;-77
2022/01/24 08:21:02;;;;;;;0.50;0.10;;;6.80;1.00;;;;;;5037480;28;20458;-76
2022/01/24 08:23:32;;;;;;;0.50;0.10;;;6.80;1.00;;;;;;5036049;28;20487;-76
2022/01/24 08:26:00;;;;;;;0.50;0.10;;;6.80;1.00;;;;;;5035135;28;20568;-76
2022/01/24 08:28:31;;;;;;;0.50;0.10;;;6.80;1.00;;;;;;5036048;28;20496;-77
2022/01/24 08:30:59;;;;;;;0.53;0.10;;;6.80;1.00;;;;;;5037499;28;20441;-79
2022/01/24 08:33:30;;;;;;;0.50;0.10;;;6.80;1.00;;;;;;5041400;28;20474;-79
2022/01/24 08:35:59;;;;;;;0.50;0.10;;;6.80;1.00;;;;;;5038395;28;20484;-77
2022/01/24 08:38:27;;;;;;;0.50;0.10;;;6.80;1.00;;;;;;5036533;28;20479;-78
2022/01/24 08:41:04;;;;;;;0.50;0.10;;;6.80;1.00;;;;;;5037101;28;20457;-78
2022/01/24 08:43:51;;;;;;;0.50;0.10;;;6.70;1.00;;;;;;5037631;28;20441;-80
2022/01/24 08:46:23;;;;;;;0.50;0.10;;;6.70;1.00;;;;;;5037811;28;20557;-79
2022/01/24 08:48:52;;;;;;;0.50;0.10;;;;;;;;;;5038351;28;20463;-78
2022/01/24 08:51:23;;;;;;;0.50;0.10;;;6.80;1.00;;;;;;5045150;28;20437;-79
2022/01/24 08:54:13;;;;;;;0.50;0.10;;;6.80;1.00;;;;;;5050045;28;20464;-78
2022/01/24 08:56:45;;;;;;;0.50;0.10;;;6.80;1.00;;;;;;5040961;28;20567;-78
2022/01/24 08:59:21;;;;;;;0.50;0.10;;;6.80;1.00;;;;;;5038436;28;20444;-78
2022/01/24 09:01:49;;;;;;;0.50;0.10;;;6.80;1.00;;;;;;5037104;28;20476;-77
2022/01/24 09:04:17;;;;;;;0.50;0.10;;;6.80;1.00;;;;;;5036547;28;20511;-81
2022/01/24 09:06:48;;;;;;;0.50;0.10;;;6.70;1.00;;;;;;5048263;28;20477;-78
2022/01/24 09:09:16;;;;;;;0.50;0.10;;;6.70;1.00;;;;;;5052826;28;20439;-77
2022/01/24 09:11:45;;;;;;;0.50;0.10;;;6.80;1.00;;;;;;5046025;28;20444;-78
2022/01/24 09:14:14;;;;;;;0.50;0.10;;;6.80;1.00;;;;;;5039962;28;20484;-79
2022/01/24 09:16:41;;;;;;;0.50;0.10;;;6.80;1.00;;;;;;5041541;28;20451;-78
2022/01/24 09:19:09;;;;;;;0.50;0.10;;;6.90;1.00;;;;;;5046743;28;20453;-77
2022/01/24 09:21:38;;;;;;;0.50;0.10;;;6.90;1.00;;;;;;5037672;28;20445;-79
2022/01/24 09:24:14;;;;;;;0.50;0.10;;;6.90;1.00;;;;;;5047572;28;20465;-79
2022/01/24 09:26:44;;;;;;;0.50;0.10;;;;;;;;;;5043307;28;20487;-80
2022/01/24 09:29:14;;;;;;;0.50;0.10;;;;;;;;;;5040292;28;20477;-82
2022/01/24 09:31:43;;;;;;;0.50;0.10;;;;;;;;;;5044276;28;20450;-79
2022/01/24 09:34:11;;;;;;;0.50;0.10;;;;;;;;;;5038866;28;20489;-79
2022/01/24 09:36:39;;;;;;;0.50;0.10;;;6.80;1.00;;;;;;5048945;28;20544;-79
2022/01/24 09:39:07;;;;;;;0.50;0.10;;;6.80;1.00;;;;;;5047479;28;20446;-78
2022/01/24 09:41:35;;;;;;;0.53;0.10;;;6.80;1.00;;;;;;5050155;28;21016;-78
2022/01/24 09:44:25;;;;;;;0.50;0.10;;;;;;;;;;5053320;28;20445;-80
2022/01/24 09:46:55;;;;;;;0.50;0.10;;;6.90;1.00;;;;;;5052531;28;20519;-81
2022/01/24 09:49:28;;;;;;;0.50;0.10;;;;;;;;;;5051472;28;20467;-80
2022/01/24 09:51:58;;;;;;;0.50;0.10;;;;;;;;;;5044023;28;20433;-79
2022/01/24 09:54:28;;;;;;;0.50;0.10;;;6.90;1.00;;;;;;5041787;28;20493;-81
2022/01/24 09:56:57;;;;;;;0.50;0.10;;;6.90;1.00;;;;;;5044763;28;20547;-79
2022/01/24 09:59:29;;;;;;;0.50;0.10;;;;;;;;;;5041878;28;20444;-81
2022/01/24 10:02:02;;;;;;;0.50;0.10;;;;;;;;;;5049643;28;20463;-81
2022/01/24 10:04:37;;;;;;;0.50;0.10;;;;;;;;;;5046575;28;20646;-82
2022/01/24 10:07:16;;;;;;;0.50;0.10;;;;;;;;;;5049725;28;20473;-78
2022/01/24 10:09:49;;;;;;;0.50;0.10;;;;;;;;;;5047652;28;20463;-80
2022/01/24 10:12:32;;;;;;;0.50;0.10;;;;;;;;;;5044243;28;20521;-82
2022/01/24 10:18:08;;;;;;;0.50;0.10;;;7.00;1.00;;;;;;4998452;28;20475;-81
2022/01/24 10:20:39;;;;;;;0.53;0.10;;;7.00;1.00;;;;;;5030845;28;20464;-80
2022/01/24 10:23:12;;;;;;;0.57;0.10;;;7.10;1.00;;;;;;5043440;28;20441;-80
2022/01/24 10:25:49;;;;;;;0.50;0.10;;;7.10;1.00;;;;;;5046535;28;20554;-79
2022/01/24 10:28:30;;;;;;;0.60;0.10;;;7.10;1.00;;;;;;5039826;28;20482;-78
2022/01/24 10:31:16;;;;;;;0.60;0.10;;;7.10;1.00;;;;;;5037211;28;20476;-77
2022/01/24 10:33:52;;;;;;;0.50;0.10;;;7.10;1.00;;;;;;5039628;28;20437;-79
2022/01/24 10:36:35;;;;;;;0.50;0.10;;;7.10;1.00;;;;;;5037003;28;20459;-77
2022/01/24 10:39:29;;;;;;;0.50;0.10;;;7.10;1.00;;;;;;5036552;28;20463;-79
2022/01/24 10:42:25;;;;;;;0.50;0.10;;;;;;;;;;5041511;28;20541;-79
2022/01/24 10:44:54;;;;;;;0.53;0.10;;;7.10;1.00;;;;;;5039304;28;20487;-80
2022/01/24 10:47:28;;;;;;;0.50;0.10;;;7.10;1.00;;;;;;5037781;28;20808;-80
2022/01/24 10:49:58;;;;;;;0.50;0.10;;;7.10;1.00;;;;;;5038478;28;20452;-78
2022/01/24 10:52:28;;;;;;;0.53;0.10;;;7.30;1.00;;;;;;5036853;28;20453;-77
2022/01/24 10:55:13;;;;;;;0.50;0.10;;;7.30;1.00;;;;;;5039336;28;21007;-80
2022/01/24 10:57:42;;;;;;;0.53;0.10;;;7.30;1.00;;;;;;5042826;28;20469;-78
2022/01/24 11:00:13;;;;;;;0.50;0.10;;;7.40;1.00;;;;;;5046560;28;20468;-78
2022/01/24 11:02:49;;;;;;;0.60;0.10;;;7.40;1.00;;;;;;5043804;28;20434;-80
2022/01/24 11:05:21;;;;;;;0.50;0.10;;;7.50;1.00;;;;;;5052685;28;20825;-78
2022/01/24 11:07:56;;;;;;;0.60;0.10;;;7.50;1.00;;;;;;5045319;28;20542;-78
2022/01/24 11:10:29;;;;;;;0.50;0.10;;;7.50;1.00;;;;;;5039871;28;20541;-78
2022/01/24 11:12:57;;;;;;;0.50;0.10;;;7.50;1.00;;;;;;5041041;28;20971;-79
2022/01/24 11:15:38;;;;;;;0.60;0.10;;;7.60;1.00;;;;;;5040906;28;20557;-78
2022/01/24 11:18:08;;;;;;;3.00;2.20;;;;;;;;;;5043538;28;20442;-79
2022/01/24 11:20:40;;;;;;;0.50;0.10;;;7.60;1.00;;;;;;5040803;28;20480;-77
2022/01/24 11:23:09;;;;;;;0.60;0.20;;;7.60;1.00;;;;;;5040274;28;20820;-78
2022/01/24 11:25:39;;;;;;;0.50;0.10;;;7.60;1.00;;;;;;5050617;28;20511;-78
2022/01/24 11:28:07;;;;;;;1.63;0.67;;;7.50;1.00;;;;;;5070035;28;20464;-78
2022/01/24 11:30:43;;;;;;;0.50;0.10;;;7.50;1.00;;;;;;5052738;28;20815;-78
2022/01/24 11:33:14;;;;;;;0.60;0.10;;;7.50;1.00;;;;;;5031869;28;20460;-77
2022/01/24 11:35:50;;;;;;;0.63;0.20;;;7.50;1.00;;;;;;5037865;28;20471;-77
2022/01/24 11:38:29;;;;;;;0.53;0.10;;;7.50;1.00;;;;;;5037497;28;20489;-79
2022/01/24 11:41:00;;;;;;;0.60;0.10;;;7.40;1.00;;;;;;5039696;28;20452;-80
2022/01/24 11:43:32;;;;;;;0.60;0.10;;;7.40;1.00;;;;;;5040994;28;20448;-78
2022/01/24 11:46:05;;;;;;;0.50;0.10;;;7.50;1.00;;;;;;5039582;28;20583;-80
2022/01/24 11:48:36;;;;;;;0.50;0.10;;;7.50;1.00;;;;;;5039605;28;20494;-78
2022/01/24 11:51:09;;;;;;;0.60;0.10;;;7.50;1.00;;;;;;5032467;28;20472;-81
2022/01/24 11:53:41;;;;;;;0.60;0.10;;;7.50;1.00;;;;;;5036748;28;20956;-78
2022/01/24 11:56:23;;;;;;;0.50;0.10;;;8.70;1.00;;;;;;5041919;28;20919;-78
2022/01/24 11:59:12;;;;;;;0.57;0.10;;;7.60;1.00;;;;;;5036708;28;20432;-77
2022/01/24 12:01:41;;;;;;;0.50;0.20;;;7.60;1.00;;;;;;5044135;28;20446;-79
2022/01/24 12:04:10;;;;;;;0.60;0.10;;;7.60;1.00;;;;;;5045128;28;20465;-78
2022/01/24 12:07:12;;;;;;;0.50;0.10;;;7.60;1.00;;;;;;5041547;28;20449;-79
2022/01/24 12:09:40;;;;;;;0.60;0.10;;;7.60;1.00;;;;;;5042693;28;20482;-79
2022/01/24 12:12:41;;;;;;;0.60;0.10;;;7.60;1.00;;;;;;5066500;28;20472;-79
2022/01/24 12:15:11;;;;;;;0.50;0.10;;;7.60;1.00;;;;;;5067835;28;20469;-81
2022/01/24 12:17:47;;;;;;;0.60;0.10;;;7.60;1.00;;;;;;5060547;28;20434;-78
2022/01/24 12:20:55;;;;;;;0.60;0.10;;;7.60;1.00;;;;;;5060387;28;20454;-81
2022/01/24 12:23:37;;;;;;;0.57;0.10;;;7.60;1.00;;;;;;5061917;28;20516;-79
2022/01/24 12:26:27;;;;;;;0.60;0.10;;;;;;;;;;5063593;28;20529;-77
2022/01/24 12:29:03;;;;;;;0.60;0.10;;;7.60;1.00;;;;;;5058309;28;20520;-78
2022/01/24 12:31:45;;;;;;;0.50;0.10;;;7.60;1.00;;;;;;5050634;28;20549;-80
2022/01/24 12:34:17;;;;;;;0.50;0.10;;;7.60;1.00;;;;;;5038458;28;20477;-78
2022/01/24 12:37:02;;;;;;;0.60;0.10;;;7.60;1.00;;;;;;5039470;28;20443;-80
2022/01/24 12:39:43;;;;;;;0.60;0.10;;;7.60;1.00;;;;;;5038861;28;20440;-81
2022/01/24 12:42:18;;;;;;;0.50;0.10;;;7.60;1.00;;;;;;5044403;28;20454;-82
2022/01/24 12:47:37;;;;;;;2.00;1.90;;;7.60;1.00;;;;;;5041203;28;20927;-79
2022/01/24 12:50:08;;;;;;;0.60;0.10;;;7.50;1.00;;;;;;5039662;28;20488;-77
2022/01/24 12:52:38;;;;;;;0.50;0.10;;;7.50;1.00;;;;;;5037700;28;20440;-77
2022/01/24 12:55:12;;;;;;;0.50;0.10;;;7.60;1.00;;;;;;5042961;28;20468;-78
2022/01/24 12:57:44;;;;;;;0.50;0.10;;;7.60;1.00;;;;;;5038979;28;21067;-76
2022/01/24 13:00:15;;;;;;;0.60;0.10;;;7.70;1.00;;;;;;5039500;28;20441;-81
2022/01/24 13:02:43;;;;;;;0.50;0.13;;;5.30;1.00;;;;;;5047755;28;20957;-78
2022/01/24 13:05:13;;;;;;;0.50;0.10;;;7.90;1.00;;;;;;5047752;28;20466;-79
2022/01/24 13:07:48;;;;;;;0.60;0.10;;;7.90;1.00;;;;;;5050153;28;20447;-82
2022/01/24 13:10:21;;;;;;;0.57;0.10;;;7.90;1.00;;;;;;5051006;28;20858;-82
2022/01/24 13:12:57;;;;;;;0.60;0.20;;;7.90;1.00;;;;;;5036525;28;20574;-74
2022/01/24 13:20:24;;;;;;;0.60;0.10;;;7.90;1.00;;;;;;5035124;28;20466;-76
2022/01/24 13:21:10;;;;;;;0.57;0.10;;;7.90;1.00;;;;;;5035902;28;20473;-79
2022/01/24 13:23:43;;;;;;;0.60;0.10;;;7.90;1.00;;;;;;5037408;28;20461;-79
2022/01/24 13:26:13;;;;;;;0.60;0.10;;;7.90;1.00;;;;;;5036814;28;20481;-77
2022/01/24 13:28:41;;;;;;;0.60;0.10;;;8.00;1.00;;;;;;5035329;28;20478;-76
2022/01/24 13:31:10;;;;;;;0.57;0.10;;;7.90;1.00;;;;;;5038099;28;20438;-78
2022/01/24 13:33:45;;;;;;;0.60;0.10;;;7.90;1.00;;;;;;5045512;28;20478;-77
2022/01/24 13:36:16;;;;;;;0.60;0.10;;;7.90;1.00;;;;;;5039132;28;20483;-77
2022/01/24 13:38:45;;;;;;;0.60;0.10;;;7.90;1.00;;;;;;5036660;28;20443;-78
2022/01/24 13:41:16;;;;;;;0.60;0.10;;;7.90;1.00;;;;;;5040818;28;20450;-78
2022/01/24 13:43:53;;;;;;;0.60;0.10;;;7.80;1.00;;;;;;5036492;28;20442;-77
2022/01/24 13:46:23;;;;;;;0.50;0.10;;;7.70;1.00;;;;;;5015619;28;20999;-78
2022/01/24 13:48:53;;;;;;;0.60;0.10;;;7.70;1.00;;;;;;5016645;28;20490;-78
2022/01/24 13:51:23;;;;;;;0.60;0.10;;;7.60;1.00;;;;;;5017801;28;20457;-77
2022/01/24 13:53:56;;;;;;;0.50;0.10;;;7.60;1.00;;;;;;5033886;28;20458;-78
2022/01/24 13:56:30;;;;;;;0.50;0.13;;;7.60;1.00;;;;;;5056926;28;21054;-78
2022/01/24 13:59:14;;;;;;;0.60;0.10;;;7.60;1.00;;;;;;5054061;28;20440;-78
2022/01/24 14:01:56;;;;;;;0.50;0.10;;;7.60;1.00;;;;;;5051647;28;20481;-79
2022/01/24 14:04:31;;;;;;;0.60;0.10;;;7.60;1.00;;;;;;5038574;28;20480;-78
2022/01/24 14:07:02;;;;;;;0.60;0.10;;;7.60;1.00;;;;;;5037415;28;20458;-78
2022/01/24 14:09:39;;;;;;;0.60;0.10;;;7.60;1.00;;;;;;5033712;28;20903;-78
2022/01/24 14:12:12;;;;;;;0.50;0.10;;;7.60;1.00;;;;;;5037054;28;20971;-78
2022/01/24 14:14:50;;;;;;;0.60;0.10;;;7.60;1.00;;;;;;5033433;28;20481;-78
2022/01/24 14:17:30;;;;;;;0.50;0.10;;;7.60;1.00;;;;;;5032463;28;20492;-78
2022/01/24 14:20:01;;;;;;;0.50;0.10;;;7.60;1.00;;;;;;5037395;28;20442;-77
2022/01/24 14:22:42;;;;;;;0.60;0.10;;;7.50;1.00;;;;;;5045270;28;20683;-76
2022/01/24 14:25:20;;;;;;;0.60;0.10;;;7.50;1.00;;;;;;5034090;28;20458;-77
2022/01/24 14:27:52;;;;;;;0.50;0.10;;;7.50;1.00;;;;;;5033389;28;20454;-78
2022/01/24 14:30:34;;;;;;;0.57;0.10;;;7.40;1.00;;;;;;5033572;28;20513;-79
2022/01/24 14:33:11;;;;;;;0.50;0.10;;;7.50;1.00;;;;;;5030607;28;20453;-78
2022/01/24 14:35:48;;;;;;;0.50;0.10;;;7.50;1.00;;;;;;5031550;28;20572;-77
2022/01/24 14:38:27;;;;;;;0.50;0.10;;;7.50;1.00;;;;;;5038700;28;20449;-79
2022/01/24 14:41:01;;;;;;;0.50;0.10;;;7.50;1.00;;;;;;5043965;28;20453;-76
2022/01/24 14:46:20;;;;;;;0.50;0.10;;;7.60;1.00;;;;;;5035637;28;20484;-79
2022/01/24 14:48:50;;;;;;;0.60;0.10;;;7.60;1.00;;;;;;5038569;28;20464;-78
2022/01/24 14:51:22;;;;;;;0.60;0.10;;;7.70;1.00;;;;;;5042064;28;20480;-78
2022/01/24 14:53:51;;;;;;;0.50;0.10;;;7.60;1.00;;;;;;5043018;28;20445;-78
2022/01/24 14:56:20;;;;;;;0.50;0.10;;;7.60;1.00;;;;;;5038958;28;20548;-77
2022/01/24 14:58:50;;;;;;;0.53;0.10;;;7.70;1.00;;;;;;5037541;28;20546;-78
2022/01/24 15:01:18;;;;;;;0.60;0.10;;;7.70;1.00;;;;;;5044175;28;20449;-78
2022/01/24 15:03:52;;;;;;;0.50;0.10;;;;;;;;;;5036673;28;20452;-76
2022/01/24 15:06:27;;;;;;;0.53;0.10;;;;;;;;;;5034884;28;20477;-79